createdAt,value
2018-03-15T00:00:45.249Z,86.80
2018-03-15T00:03:19.231Z,88.40
2018-03-15T00:05:46.735Z,88.40
2018-03-15T00:08:14.211Z,88.20
2018-03-15T00:10:41.717Z,89.20
2018-03-15T00:13:09.225Z,89.20
2018-03-15T00:15:37.459Z,88.70
2018-03-15T00:18:04.950Z,88.70
2018-03-15T00:20:33.173Z,89.90
2018-03-15T00:23:00.716Z,89.90
2018-03-15T00:25:28.252Z,91.20
2018-03-15T00:27:55.700Z,91.20
2018-03-15T00:30:23.958Z,90.80
2018-03-15T00:32:53.004Z,90.90
2018-03-15T00:35:21.242Z,91.10
2018-03-15T00:37:48.728Z,91.10
2018-03-15T00:40:16.999Z,91.80
2018-03-15T00:42:45.235Z,92.10
2018-03-15T00:45:12.754Z,92.10
2018-03-15T00:47:40.246Z,92.00
2018-03-15T00:50:07.729Z,92.30
2018-03-15T00:52:35.203Z,92.10
2018-03-15T00:55:03.619Z,92.10
2018-03-15T00:57:31.119Z,92.00
2018-03-15T00:59:58.595Z,92.10
2018-03-15T01:02:26.852Z,92.20
2018-03-15T01:04:54.347Z,92.30
2018-03-15T01:07:21.850Z,92.20
2018-03-15T01:09:49.322Z,92.20
2018-03-15T01:12:16.818Z,92.20
2018-03-15T01:14:44.324Z,92.30
2018-03-15T01:17:11.829Z,92.30
2018-03-15T01:19:40.202Z,92.30
2018-03-15T01:22:08.442Z,92.30
2018-03-15T01:24:35.950Z,92.30
2018-03-15T01:27:04.216Z,92.10
2018-03-15T01:29:32.474Z,92.30
2018-03-15T01:31:59.969Z,92.30
2018-03-15T01:34:28.240Z,92.30
2018-03-15T01:36:56.486Z,92.30
2018-03-15T01:39:23.996Z,92.30
2018-03-15T01:41:51.564Z,92.30
2018-03-15T01:44:19.022Z,92.10
2018-03-15T01:46:46.525Z,92.10
2018-03-15T01:49:14.015Z,92.40
2018-03-15T01:51:41.529Z,92.30
2018-03-15T01:54:09.015Z,92.10
2018-03-15T01:56:37.282Z,92.10
2018-03-15T01:59:04.775Z,92.10
2018-03-15T02:01:32.245Z,92.10
2018-03-15T02:03:59.738Z,92.20
2018-03-15T02:06:27.199Z,92.30
2018-03-15T02:08:54.709Z,92.10
2018-03-15T02:11:22.187Z,92.10
2018-03-15T02:13:49.679Z,92.00
2018-03-15T02:16:17.138Z,92.00
2018-03-15T02:18:45.410Z,91.90
2018-03-15T02:21:12.888Z,91.90
2018-03-15T02:23:40.386Z,91.90
2018-03-15T02:26:07.860Z,92.00
2018-03-15T02:28:35.356Z,91.90
2018-03-15T02:31:02.832Z,91.70
2018-03-15T02:33:31.083Z,91.80
2018-03-15T02:35:58.592Z,91.80
2018-03-15T02:38:26.157Z,91.90
2018-03-15T02:40:53.671Z,92.10
2018-03-15T02:43:21.147Z,92.10
2018-03-15T02:45:49.400Z,92.10
2018-03-15T02:48:16.904Z,92.10
2018-03-15T02:50:44.378Z,91.80
2018-03-15T02:53:11.885Z,91.90
2018-03-15T02:55:39.364Z,91.90
2018-03-15T02:58:07.621Z,92.00
2018-03-15T03:00:35.138Z,92.00
2018-03-15T03:03:02.607Z,91.90
2018-03-15T03:05:30.111Z,92.20
2018-03-15T03:07:58.342Z,92.20
2018-03-15T03:10:25.834Z,92.20
2018-03-15T03:12:53.311Z,92.20
2018-03-15T03:15:22.318Z,92.00
2018-03-15T03:17:49.794Z,92.00
2018-03-15T03:20:17.263Z,92.10
2018-03-15T03:22:44.763Z,92.10
2018-03-15T03:25:12.231Z,92.10
2018-03-15T03:27:40.514Z,92.00
2018-03-15T03:30:08.781Z,92.00
2018-03-15T03:32:37.072Z,92.10
2018-03-15T03:35:05.323Z,92.30
2018-03-15T03:37:32.839Z,92.20
2018-03-15T03:40:00.320Z,92.10
2018-03-15T03:42:27.814Z,92.20
2018-03-15T03:44:56.093Z,92.10
2018-03-15T03:47:24.335Z,92.10
2018-03-15T03:49:51.836Z,92.10
2018-03-15T03:52:20.071Z,91.90
2018-03-15T03:54:47.584Z,91.90
2018-03-15T03:57:15.059Z,91.80
2018-03-15T03:59:43.177Z,92.40
2018-03-15T04:02:10.692Z,92.30
2018-03-15T04:04:38.171Z,92.30
2018-03-15T04:07:05.664Z,92.40
2018-03-15T04:09:33.942Z,92.20
2018-03-15T04:12:01.410Z,92.20
2018-03-15T04:14:29.660Z,92.00
2018-03-15T04:16:57.962Z,92.00
2018-03-15T04:19:26.211Z,92.20
2018-03-15T04:21:53.728Z,92.20
2018-03-15T04:24:21.202Z,92.30
2018-03-15T04:26:48.675Z,92.30
2018-03-15T04:29:16.168Z,92.40
2018-03-15T04:31:44.410Z,92.30
2018-03-15T04:34:11.902Z,92.30
2018-03-15T04:36:40.140Z,92.40
2018-03-15T04:39:07.645Z,92.40
2018-03-15T04:41:35.906Z,92.50
2018-03-15T04:44:03.449Z,92.50
2018-03-15T04:46:30.947Z,92.40
2018-03-15T04:48:59.190Z,92.50
2018-03-15T04:51:26.707Z,92.50
2018-03-15T04:53:54.219Z,92.50
2018-03-15T04:56:21.714Z,92.60
2018-03-15T04:58:49.213Z,92.60
2018-03-15T05:01:16.703Z,92.60
2018-03-15T05:03:45.000Z,92.60
2018-03-15T05:06:13.249Z,92.60
2018-03-15T05:08:41.507Z,92.60
2018-03-15T05:11:08.976Z,92.60
2018-03-15T05:13:36.459Z,92.60
2018-03-15T05:16:04.732Z,92.60
2018-03-15T05:18:33.008Z,92.50
2018-03-15T05:21:01.281Z,92.60
2018-03-15T05:23:28.746Z,92.60
2018-03-15T05:25:57.021Z,92.60
2018-03-15T05:28:25.271Z,92.60
2018-03-15T05:30:52.777Z,92.60
2018-03-15T05:33:20.262Z,92.60
2018-03-15T05:35:47.772Z,92.60
2018-03-15T05:38:16.074Z,92.60
2018-03-15T05:40:43.548Z,92.60
2018-03-15T05:43:11.062Z,92.60
2018-03-15T05:45:39.302Z,92.60
2018-03-15T05:48:06.812Z,92.60
2018-03-15T05:50:35.077Z,92.60
2018-03-15T05:53:03.389Z,92.60
2018-03-15T05:55:30.893Z,92.60
2018-03-15T05:57:58.394Z,92.60
2018-03-15T06:00:25.901Z,92.60
2018-03-15T06:02:53.403Z,92.50
2018-03-15T06:05:21.668Z,92.60
2018-03-15T06:07:49.920Z,92.60
2018-03-15T06:10:17.435Z,92.60
2018-03-15T06:12:44.934Z,92.60
2018-03-15T06:15:12.435Z,92.60
2018-03-15T06:17:40.682Z,92.60
2018-03-15T06:20:08.175Z,92.60
2018-03-15T06:22:36.447Z,92.60
2018-03-15T06:25:04.692Z,92.60
2018-03-15T06:27:32.220Z,92.60
2018-03-15T06:29:59.686Z,92.60
2018-03-15T06:32:27.187Z,92.60
2018-03-15T06:34:54.699Z,92.60
2018-03-15T06:37:22.195Z,92.60
2018-03-15T06:39:49.666Z,92.60
2018-03-15T06:42:17.929Z,92.60
2018-03-15T06:44:45.468Z,92.60
2018-03-15T06:47:12.936Z,92.70
2018-03-15T06:49:40.429Z,92.60
2018-03-15T06:52:07.917Z,92.60
2018-03-15T06:54:35.426Z,92.60
2018-03-15T06:57:02.916Z,92.60
2018-03-15T06:59:30.414Z,92.50
2018-03-15T07:01:57.940Z,92.60
2018-03-15T07:04:25.463Z,92.60
2018-03-15T07:06:52.923Z,93.00
2018-03-15T07:09:21.160Z,91.00
2018-03-15T07:11:48.687Z,91.00
2018-03-15T07:14:16.161Z,91.80
2018-03-15T07:16:43.636Z,92.30
2018-03-15T07:19:11.135Z,92.30
2018-03-15T07:21:39.402Z,92.50
2018-03-15T07:24:08.406Z,92.50
2018-03-15T07:26:36.642Z,92.40
2018-03-15T07:29:04.131Z,92.40
2018-03-15T07:31:31.605Z,92.40
2018-03-15T07:33:59.883Z,92.40
2018-03-15T07:36:28.182Z,92.40
2018-03-15T07:38:55.684Z,92.40
2018-03-15T07:41:23.189Z,92.50
2018-03-15T07:43:51.446Z,92.50
2018-03-15T07:46:18.951Z,92.50
2018-03-15T07:48:46.423Z,92.50
2018-03-15T07:51:13.932Z,92.50
2018-03-15T07:53:42.201Z,92.60
2018-03-15T07:56:09.723Z,92.50
2018-03-15T07:58:37.228Z,92.50
2018-03-15T08:01:05.490Z,92.40
2018-03-15T08:03:33.001Z,92.40
2018-03-15T08:06:00.496Z,92.50
2018-03-15T08:08:28.008Z,92.40
2018-03-15T08:10:55.478Z,92.30
2018-03-15T08:13:22.953Z,92.40
2018-03-15T08:15:50.452Z,92.40
2018-03-15T08:18:18.695Z,92.40
2018-03-15T08:20:46.200Z,92.40
2018-03-15T08:23:14.455Z,92.50
2018-03-15T08:25:41.976Z,92.50
2018-03-15T08:28:09.458Z,92.40
2018-03-15T08:30:36.951Z,92.30
2018-03-15T08:33:05.225Z,92.40
2018-03-15T08:35:33.526Z,92.50
2018-03-15T08:38:01.014Z,92.50
2018-03-15T08:40:28.511Z,92.40
2018-03-15T08:42:56.774Z,92.50
2018-03-15T08:45:24.235Z,92.50
2018-03-15T08:47:51.740Z,92.40
2018-03-15T08:50:19.228Z,92.50
2018-03-15T08:52:46.727Z,92.30
2018-03-15T08:55:14.971Z,92.50
2018-03-15T08:57:42.475Z,92.50
2018-03-15T09:00:10.749Z,92.30
2018-03-15T09:02:39.003Z,92.20
2018-03-15T09:05:06.520Z,92.20
2018-03-15T09:07:34.031Z,92.40
2018-03-15T09:10:02.374Z,91.90
2018-03-15T09:12:29.879Z,91.90
2018-03-15T09:14:58.151Z,92.10
2018-03-15T09:17:26.423Z,92.10
2018-03-15T09:19:54.694Z,92.00
2018-03-15T09:22:22.167Z,92.00
2018-03-15T09:24:50.426Z,91.90
2018-03-15T09:27:17.926Z,91.90
2018-03-15T09:29:45.435Z,91.90
2018-03-15T09:32:12.933Z,91.90
2018-03-15T09:34:40.434Z,92.00
2018-03-15T09:37:07.920Z,91.80
2018-03-15T09:39:36.213Z,91.50
2018-03-15T09:42:04.458Z,91.50
2018-03-15T09:44:31.977Z,91.50
2018-03-15T09:46:59.471Z,91.60
2018-03-15T09:49:26.969Z,91.00
2018-03-15T09:51:54.492Z,91.40
2018-03-15T09:54:21.985Z,90.80
2018-03-15T09:56:50.251Z,90.70
2018-03-15T09:59:18.499Z,90.30
2018-03-15T10:01:46.046Z,90.30
2018-03-15T10:04:13.533Z,90.70
2018-03-15T10:06:41.061Z,90.90
2018-03-15T10:09:08.558Z,90.60
2018-03-15T10:11:36.822Z,90.40
2018-03-15T10:14:04.348Z,90.40
2018-03-15T10:16:31.823Z,90.00
2018-03-15T10:18:59.345Z,89.70
2018-03-15T10:21:26.828Z,88.00
2018-03-15T10:23:54.320Z,88.60
2018-03-15T10:26:23.380Z,88.40
2018-03-15T10:28:50.915Z,88.40
2018-03-15T10:31:18.404Z,86.60
2018-03-15T10:33:45.907Z,86.30
2018-03-15T10:36:14.182Z,85.80
2018-03-15T10:38:42.434Z,88.40
2018-03-15T10:41:10.710Z,85.20
2018-03-15T10:43:38.219Z,85.10
2018-03-15T10:46:05.826Z,85.40
2018-03-15T10:48:33.306Z,84.40
2018-03-15T10:51:00.771Z,85.10
2018-03-15T10:53:29.071Z,88.00
2018-03-15T10:55:56.559Z,88.00
2018-03-15T10:58:24.105Z,85.60
2018-03-15T11:00:57.341Z,84.50
2018-03-15T11:06:35.564Z,83.80
2018-03-15T11:09:03.092Z,82.60
2018-03-15T11:11:30.584Z,80.90
2018-03-15T11:13:58.124Z,80.90
2018-03-15T11:16:25.615Z,80.70
2018-03-15T11:18:53.222Z,80.80
2018-03-15T11:21:20.723Z,80.90
2018-03-15T11:23:48.282Z,81.70
2018-03-15T11:26:15.689Z,80.00
2018-03-15T11:28:43.200Z,79.30
2018-03-15T11:31:10.693Z,80.80
2018-03-15T11:33:38.939Z,78.50
2018-03-15T11:36:06.486Z,78.50
2018-03-15T11:38:33.970Z,79.00
2018-03-15T11:41:01.588Z,76.20
2018-03-15T11:43:29.128Z,65.10
2018-03-15T11:45:56.622Z,77.20
2018-03-15T11:48:24.132Z,66.30
2018-03-15T11:50:53.188Z,66.50
2018-03-15T11:53:20.714Z,66.50
2018-03-15T11:55:48.194Z,65.50
2018-03-15T11:58:15.686Z,64.20
2018-03-15T12:00:43.959Z,63.50
2018-03-15T12:03:12.229Z,64.00
2018-03-15T12:05:41.279Z,64.60
2018-03-15T12:08:08.780Z,64.60
2018-03-15T12:10:37.052Z,61.60
2018-03-15T12:13:04.543Z,61.60
2018-03-15T12:15:32.797Z,62.70
2018-03-15T12:18:00.339Z,62.70
2018-03-15T12:20:27.902Z,62.60
2018-03-15T12:22:55.409Z,62.40
2018-03-15T12:25:23.639Z,62.30
2018-03-15T12:27:51.171Z,62.30
2018-03-15T12:30:18.737Z,56.50
2018-03-15T12:32:46.261Z,59.00
2018-03-15T12:35:14.495Z,57.10
2018-03-15T12:37:41.990Z,57.10
2018-03-15T12:40:10.253Z,54.30
2018-03-15T12:42:37.774Z,54.30
2018-03-15T12:45:05.249Z,57.10
2018-03-15T12:47:32.743Z,54.70
2018-03-15T12:50:00.242Z,50.00
2018-03-15T12:52:27.738Z,48.80
2018-03-15T12:54:55.205Z,53.10
2018-03-15T12:57:23.516Z,46.70
2018-03-15T12:59:50.959Z,46.70
2018-03-15T13:02:18.459Z,48.50
2018-03-15T13:04:45.940Z,46.00
2018-03-15T13:07:13.443Z,45.90
2018-03-15T13:09:41.803Z,46.20
2018-03-15T13:12:10.063Z,48.60
2018-03-15T13:14:37.558Z,48.60
2018-03-15T13:17:05.064Z,49.50
2018-03-15T13:19:32.538Z,47.10
2018-03-15T13:22:00.048Z,48.20
2018-03-15T13:24:27.553Z,52.10
2018-03-15T13:26:55.068Z,53.50
2018-03-15T13:29:23.328Z,52.60
2018-03-15T13:31:50.807Z,52.60
2018-03-15T13:34:18.308Z,54.20
2018-03-15T13:36:45.800Z,55.60
2018-03-15T13:39:13.346Z,56.40
2018-03-15T13:41:40.819Z,53.90
2018-03-15T13:44:08.350Z,54.00
2018-03-15T13:46:36.640Z,50.60
2018-03-15T13:49:04.882Z,50.10
2018-03-15T13:51:32.375Z,50.10
2018-03-15T13:54:00.641Z,52.90
2018-03-15T13:56:28.906Z,52.10
2018-03-15T13:58:56.395Z,52.10
2018-03-15T14:01:24.664Z,53.10
2018-03-15T14:03:52.909Z,52.20
2018-03-15T14:06:20.421Z,51.60
2018-03-15T14:08:47.938Z,54.40
2018-03-15T14:11:15.390Z,55.60
2018-03-15T14:13:42.891Z,52.50
2018-03-15T14:16:11.322Z,54.50
2018-03-15T14:18:39.243Z,51.60
2018-03-15T14:21:06.747Z,53.10
2018-03-15T14:23:34.239Z,51.20
2018-03-15T14:26:02.499Z,50.50
2018-03-15T14:28:29.984Z,50.60
2018-03-15T14:30:58.231Z,49.80
2018-03-15T14:33:25.748Z,49.80
2018-03-15T14:35:53.262Z,48.20
2018-03-15T14:38:20.760Z,52.30
2018-03-15T14:40:48.239Z,51.40
2018-03-15T14:43:15.755Z,50.90
2018-03-15T14:45:44.028Z,54.00
2018-03-15T14:48:12.266Z,51.70
2018-03-15T14:50:39.783Z,51.60
2018-03-15T14:53:07.935Z,48.80
2018-03-15T14:55:36.214Z,46.80
2018-03-15T14:58:04.438Z,50.80
2018-03-15T15:00:31.941Z,50.80
2018-03-15T15:03:00.222Z,48.20
2018-03-15T15:05:28.498Z,49.00
2018-03-15T15:07:56.739Z,49.30
2018-03-15T15:10:24.269Z,49.20
2018-03-15T15:12:51.767Z,45.90
2018-03-15T15:15:19.251Z,48.50
2018-03-15T15:17:47.493Z,52.00
2018-03-15T15:20:15.023Z,52.10
2018-03-15T15:22:42.526Z,50.80
2018-03-15T15:25:10.002Z,45.90
2018-03-15T15:27:38.255Z,47.10
2018-03-15T15:30:05.758Z,47.10
2018-03-15T15:32:34.045Z,45.70
2018-03-15T15:35:01.527Z,45.70
2018-03-15T15:37:29.038Z,48.20
2018-03-15T15:39:57.290Z,48.40
2018-03-15T15:42:24.770Z,48.20
2018-03-15T15:44:53.028Z,49.00
2018-03-15T15:47:20.547Z,48.80
2018-03-15T15:49:48.041Z,51.30
2018-03-15T15:52:15.563Z,51.20
2018-03-15T15:54:43.048Z,49.30
2018-03-15T15:57:10.542Z,49.00
2018-03-15T15:59:38.810Z,49.30
2018-03-15T16:02:07.078Z,49.40
2018-03-15T16:04:34.594Z,49.40
2018-03-15T16:07:02.068Z,49.50
2018-03-15T16:09:29.580Z,48.90
2018-03-15T16:11:57.821Z,48.80
2018-03-15T16:14:25.348Z,48.80
2018-03-15T16:16:52.823Z,48.80
2018-03-15T16:19:20.337Z,47.20
2018-03-15T16:21:48.580Z,48.40
2018-03-15T16:24:16.099Z,48.20
2018-03-15T16:26:43.591Z,48.60
2018-03-15T16:29:11.089Z,50.70
2018-03-15T16:31:39.376Z,52.90
2018-03-15T16:34:06.867Z,52.60
2018-03-15T16:36:34.369Z,54.50
2018-03-15T16:39:02.629Z,55.90
2018-03-15T16:41:30.130Z,55.70
2018-03-15T16:43:57.629Z,56.30
2018-03-15T16:46:25.139Z,58.30
2018-03-15T16:48:52.678Z,60.20
2018-03-15T16:51:20.180Z,57.00
2018-03-15T16:53:47.710Z,60.10
2018-03-15T16:56:15.958Z,56.70
2018-03-15T16:58:43.692Z,56.70
2018-03-15T17:01:11.216Z,59.70
2018-03-15T17:03:39.318Z,60.30
2018-03-15T17:06:06.802Z,57.50
2018-03-15T17:08:34.342Z,52.40
2018-03-15T17:11:01.849Z,51.60
2018-03-15T17:13:30.103Z,49.40
2018-03-15T17:15:57.607Z,49.50
2018-03-15T17:18:25.134Z,50.50
2018-03-15T17:20:52.667Z,51.30
2018-03-15T17:23:20.170Z,48.10
2018-03-15T17:25:48.447Z,47.00
2018-03-15T17:28:16.709Z,47.00
2018-03-15T17:30:44.227Z,47.00
2018-03-15T17:33:11.727Z,49.50
2018-03-15T17:35:40.012Z,49.20
2018-03-15T17:38:08.298Z,51.80
2018-03-15T17:40:36.570Z,53.40
2018-03-15T17:43:04.831Z,48.20
2018-03-15T17:45:33.072Z,48.70
2018-03-15T17:48:00.563Z,48.70
2018-03-15T17:50:28.046Z,50.40
2018-03-15T17:52:56.320Z,51.40
2018-03-15T17:55:24.561Z,51.40
2018-03-15T17:57:52.060Z,51.40
2018-03-15T18:00:20.298Z,47.80
2018-03-15T18:02:47.843Z,47.80
2018-03-15T18:05:15.332Z,48.40
2018-03-15T18:07:42.842Z,49.00
2018-03-15T18:10:10.332Z,51.20
2018-03-15T18:12:37.856Z,50.20
2018-03-15T18:15:05.342Z,51.20
2018-03-15T18:17:32.871Z,51.70
2018-03-15T18:20:00.361Z,48.50
2018-03-15T18:22:27.846Z,49.20
2018-03-15T18:24:55.369Z,49.70
2018-03-15T18:27:22.856Z,50.50
2018-03-15T18:29:50.363Z,52.00
2018-03-15T18:32:17.890Z,53.70
2018-03-15T18:34:45.410Z,51.20
2018-03-15T18:37:12.920Z,54.20
2018-03-15T18:39:41.946Z,54.40
2018-03-15T18:42:09.468Z,54.40
2018-03-15T18:44:37.732Z,54.20
2018-03-15T18:47:06.032Z,55.30
2018-03-15T18:49:34.300Z,56.50
2018-03-15T18:52:02.544Z,57.70
2018-03-15T18:54:30.091Z,57.50
2018-03-15T18:56:57.577Z,59.20
2018-03-15T18:59:25.060Z,60.10
2018-03-15T19:01:53.335Z,60.00
2018-03-15T19:04:21.644Z,60.30
2018-03-15T19:06:49.882Z,60.20
2018-03-15T19:09:18.140Z,60.40
2018-03-15T19:11:45.664Z,60.30
2018-03-15T19:14:13.150Z,60.40
2018-03-15T19:16:40.630Z,60.20
2018-03-15T19:19:08.948Z,60.10
2018-03-15T19:21:36.414Z,60.10
2018-03-15T19:24:03.934Z,60.20
2018-03-15T19:26:32.188Z,60.70
2018-03-15T19:29:00.493Z,60.80
2018-03-15T19:31:27.989Z,60.80
2018-03-15T19:33:55.518Z,60.80
2018-03-15T19:36:23.770Z,61.40
2018-03-15T19:38:51.284Z,61.40
2018-03-15T19:41:18.789Z,61.80
2018-03-15T19:43:46.306Z,62.00
2018-03-15T19:46:13.802Z,62.40
2018-03-15T19:48:42.088Z,62.60
2018-03-15T19:51:09.571Z,62.60
2018-03-15T19:53:37.081Z,62.70
2018-03-15T19:56:04.572Z,63.10
2018-03-15T19:58:32.859Z,64.50
2018-03-15T20:01:01.100Z,65.20
2018-03-15T20:03:28.589Z,65.10
2018-03-15T20:05:56.866Z,64.90
2018-03-15T20:08:24.363Z,64.90
2018-03-15T20:10:51.874Z,66.10
2018-03-15T20:13:20.146Z,67.90
2018-03-15T20:15:49.170Z,68.80
2018-03-15T20:18:16.659Z,68.80
2018-03-15T20:20:44.185Z,69.20
2018-03-15T20:23:17.296Z,70.40
2018-03-15T20:25:44.789Z,71.00
2018-03-15T20:28:18.091Z,72.70
2018-03-15T20:30:45.591Z,72.70
2018-03-15T20:33:18.955Z,83.60
2018-03-15T20:35:47.223Z,84.90
2018-03-15T20:38:14.760Z,84.90
2018-03-15T20:40:47.912Z,85.30
2018-03-15T20:43:15.422Z,86.00
2018-03-15T20:45:48.673Z,86.30
2018-03-15T20:48:21.942Z,86.40
2018-03-15T20:50:50.275Z,85.80
2018-03-15T20:53:17.750Z,85.80
2018-03-15T20:55:45.248Z,85.80
2018-03-15T20:58:12.775Z,85.90
2018-03-15T21:00:40.251Z,86.70
2018-03-15T21:03:08.530Z,86.40
2018-03-15T21:05:36.838Z,86.90
2018-03-15T21:08:04.335Z,86.90
2018-03-15T21:10:31.811Z,87.60
2018-03-15T21:12:59.301Z,87.00
2018-03-15T21:15:26.796Z,86.70
2018-03-15T21:17:54.322Z,87.00
2018-03-15T21:20:22.599Z,86.40
2018-03-15T21:22:50.100Z,86.40
2018-03-15T21:25:17.588Z,86.20
2018-03-15T21:27:45.108Z,86.40
2018-03-15T21:30:12.620Z,86.70
2018-03-15T21:32:40.900Z,88.30
2018-03-15T21:35:09.176Z,87.90
2018-03-15T21:37:37.470Z,87.60
2018-03-15T21:40:04.959Z,87.60
2018-03-15T21:42:32.478Z,87.90
2018-03-15T21:45:00.763Z,88.10
2018-03-15T21:47:29.021Z,88.70
2018-03-15T21:49:57.291Z,89.20
2018-03-15T21:52:24.755Z,89.20
2018-03-15T21:54:53.043Z,88.70
2018-03-15T21:57:21.295Z,88.70
2018-03-15T21:59:48.751Z,88.70
2018-03-15T22:02:16.252Z,88.70
2018-03-15T22:04:43.745Z,89.40
2018-03-15T22:07:11.240Z,89.90
2018-03-15T22:09:39.708Z,89.70
2018-03-15T22:12:08.718Z,89.50
2018-03-15T22:14:36.965Z,89.60
2018-03-15T22:17:04.477Z,89.60
2018-03-15T22:19:31.970Z,90.10
2018-03-15T22:21:59.459Z,90.00
2018-03-15T22:24:26.989Z,90.10
2018-03-15T22:26:54.501Z,90.30
2018-03-15T22:29:22.793Z,90.60
2018-03-15T22:31:50.290Z,90.60
2018-03-15T22:34:17.772Z,90.60
2018-03-15T22:36:45.299Z,90.60
2018-03-15T22:39:12.800Z,90.60
2018-03-15T22:41:40.323Z,90.60
2018-03-15T22:44:07.799Z,89.50
2018-03-15T22:46:35.330Z,78.90
2018-03-15T22:49:02.798Z,77.70
2018-03-15T22:51:30.296Z,77.00
2018-03-15T22:53:58.550Z,76.80
2018-03-15T22:56:26.045Z,76.80
2018-03-15T22:58:54.279Z,77.20
2018-03-15T23:01:21.791Z,77.20
2018-03-15T23:03:49.268Z,77.90
2018-03-15T23:06:16.781Z,78.10
2018-03-15T23:08:44.294Z,78.60
2018-03-15T23:11:11.779Z,78.80
2018-03-15T23:13:39.368Z,79.40
2018-03-15T23:16:06.774Z,80.10
2018-03-15T23:18:34.313Z,80.40
2018-03-15T23:21:01.784Z,81.00
2018-03-15T23:23:29.278Z,81.20
2018-03-15T23:25:56.748Z,81.50
2018-03-15T23:28:24.294Z,81.90
2018-03-15T23:30:51.808Z,82.20
2018-03-15T23:33:19.287Z,82.40
2018-03-15T23:35:46.797Z,82.10
2018-03-15T23:38:15.032Z,82.00
2018-03-15T23:40:42.539Z,82.00
2018-03-15T23:43:10.787Z,82.10
2018-03-15T23:45:38.318Z,82.10
2018-03-15T23:48:05.790Z,82.30
2018-03-15T23:50:33.285Z,82.30
2018-03-15T23:53:01.514Z,82.10
2018-03-15T23:55:29.021Z,82.00
2018-03-15T23:57:57.275Z,81.60
